Time;durP1;ratioP1;P1;durP2;ratioP2;P2;SDS_P1;SDS_P2;PMS_P1;PMS_P2;Temp;Humidity;BMP_temperature;BMP_pressure;BME280_temperature;BME280_humidity;BME280_pressure;Samples;Min_cycle;Max_cycle;Signal;HPM_P1;HPM_P2
2022/08/21 00:00:08;;;;;;;3.40;1.92;;;17.10;99.90;;;;;;5053437;28;20181;-58
2022/08/21 00:02:33;;;;;;;4.72;2.38;;;17.00;99.90;;;;;;5053157;28;20726;-58
2022/08/21 00:04:59;;;;;;;2.88;1.95;;;17.00;99.90;;;;;;5053193;28;20173;-58
2022/08/21 00:07:24;;;;;;;2.22;2.03;;;17.00;99.90;;;;;;5053186;28;20706;-60
2022/08/21 00:09:50;;;;;;;3.03;1.70;;;17.10;99.90;;;;;;5053190;28;20221;-58
2022/08/21 00:12:16;;;;;;;3.28;1.88;;;17.10;99.90;;;;;;5053220;28;20181;-57
2022/08/21 00:14:41;;;;;;;2.67;2.10;;;17.10;99.90;;;;;;5053214;28;20181;-57
2022/08/21 00:17:07;;;;;;;3.20;1.90;;;17.00;99.90;;;;;;5053201;28;20185;-58
2022/08/21 00:19:33;;;;;;;3.60;2.10;;;17.00;99.90;;;;;;5053137;28;20179;-57
2022/08/21 00:21:59;;;;;;;3.35;1.95;;;17.00;99.90;;;;;;5052997;28;20220;-57
2022/08/21 00:24:25;;;;;;;2.60;1.95;;;16.90;99.90;;;;;;5052817;28;20204;-58
2022/08/21 00:26:52;;;;;;;4.60;2.00;;;16.90;99.90;;;;;;5052845;28;20177;-58
2022/08/21 00:29:18;;;;;;;3.25;1.75;;;16.90;99.90;;;;;;5052782;28;20531;-57
2022/08/21 00:31:43;;;;;;;2.40;1.85;;;16.90;99.90;;;;;;5052890;28;20185;-57
2022/08/21 00:34:10;;;;;;;4.15;2.00;;;16.80;99.90;;;;;;5052322;28;20177;-58
2022/08/21 00:36:36;;;;;;;3.08;2.00;;;16.70;99.90;;;;;;5052648;28;20220;-57
2022/08/21 00:39:05;;;;;;;5.68;3.10;;;16.70;99.90;;;;;;5052555;28;20263;-57
2022/08/21 00:41:30;;;;;;;2.88;2.35;;;16.70;99.90;;;;;;5052534;28;20649;-57
2022/08/21 00:43:56;;;;;;;3.20;2.08;;;16.60;99.90;;;;;;5052416;28;20185;-58
2022/08/21 00:46:22;;;;;;;2.83;2.10;;;16.60;99.90;;;;;;5052536;28;20193;-57
2022/08/21 00:48:47;;;;;;;3.60;2.15;;;16.60;99.90;;;;;;5052194;28;20178;-57
2022/08/21 00:51:25;;;;;;;4.15;2.25;;;16.50;99.90;;;;;;5052223;28;20747;-57
2022/08/21 00:53:55;;;;;;;2.28;1.83;;;16.50;99.90;;;;;;5052324;28;20173;-57
2022/08/21 00:56:22;;;;;;;4.15;1.92;;;16.60;99.90;;;;;;5052174;28;20257;-57
2022/08/21 00:58:49;;;;;;;2.78;2.20;;;16.50;99.90;;;;;;5051967;28;20667;-58
2022/08/21 01:01:15;;;;;;;2.72;2.10;;;16.50;99.90;;;;;;5052153;28;20237;-57
2022/08/21 01:03:41;;;;;;;2.80;2.22;;;16.50;99.90;;;;;;5052215;28;20200;-57
2022/08/21 01:06:07;;;;;;;3.10;2.15;;;16.40;99.90;;;;;;5052106;28;20173;-57
2022/08/21 01:08:34;;;;;;;2.63;1.90;;;16.40;99.90;;;;;;5052316;28;20188;-57
2022/08/21 01:11:01;;;;;;;3.90;2.47;;;16.40;99.90;;;;;;5051817;28;20255;-58
2022/08/21 01:13:30;;;;;;;4.40;2.20;;;16.30;99.90;;;;;;5052105;28;20178;-57
2022/08/21 01:15:59;;;;;;;3.75;2.10;;;16.30;99.90;;;;;;5052079;28;20173;-57
2022/08/21 01:18:26;;;;;;;3.13;2.45;;;16.30;99.90;;;;;;5052227;28;20224;-57
2022/08/21 01:21:10;;;;;;;3.53;2.38;;;16.30;99.90;;;;;;5051890;28;20170;-57
2022/08/21 01:23:40;;;;;;;3.05;2.15;;;16.20;99.90;;;;;;5052026;28;20178;-58
2022/08/21 01:26:06;;;;;;;3.95;1.85;;;16.20;99.90;;;;;;5051854;28;20260;-57
2022/08/21 01:28:37;;;;;;;2.67;2.40;;;16.10;99.90;;;;;;5051844;28;20183;-57
2022/08/21 01:31:05;;;;;;;3.53;2.45;;;16.10;99.90;;;;;;5051860;28;20209;-58
2022/08/21 01:33:31;;;;;;;6.25;2.65;;;16.10;99.90;;;;;;5051678;28;20656;-57
2022/08/21 01:35:56;;;;;;;5.53;2.30;;;16.00;99.90;;;;;;5051854;28;20182;-57
2022/08/21 01:38:23;;;;;;;5.20;2.35;;;16.00;99.90;;;;;;5051875;28;20169;-57
2022/08/21 01:40:48;;;;;;;3.30;2.30;;;16.00;99.90;;;;;;5051444;28;20177;-58
2022/08/21 01:43:14;;;;;;;2.45;2.15;;;15.90;99.90;;;;;;5051769;28;20519;-58
2022/08/21 01:45:40;;;;;;;3.63;2.28;;;15.90;99.90;;;;;;5051373;28;20228;-57
2022/08/21 01:48:05;;;;;;;4.38;2.50;;;15.90;99.90;;;;;;5050985;28;20181;-57
2022/08/21 01:50:31;;;;;;;3.95;2.50;;;15.90;99.90;;;;;;5051400;28;20213;-57
2022/08/21 01:52:56;;;;;;;5.60;2.80;;;15.80;99.90;;;;;;5051579;28;20179;-58
2022/08/21 01:55:23;;;;;;;3.72;2.63;;;15.80;99.90;;;;;;5051724;28;20268;-57
2022/08/21 01:57:49;;;;;;;4.32;2.67;;;15.80;99.90;;;;;;5051533;28;20223;-57
2022/08/21 02:00:17;;;;;;;4.13;3.00;;;15.80;99.90;;;;;;5051688;28;20166;-57
2022/08/21 02:02:43;;;;;;;3.85;2.80;;;15.80;99.90;;;;;;5051456;28;20220;-57
2022/08/21 02:05:11;;;;;;;4.38;2.83;;;15.80;99.90;;;;;;5051296;28;20648;-58
2022/08/21 02:07:43;;;;;;;3.78;2.80;;;15.70;99.90;;;;;;5051406;28;20211;-57
2022/08/21 02:10:10;;;;;;;6.40;3.20;;;15.70;99.90;;;;;;5051534;28;20243;-57
2022/08/21 02:12:36;;;;;;;5.95;3.00;;;15.70;99.90;;;;;;5051640;28;20223;-57
2022/08/21 02:15:06;;;;;;;11.18;3.47;;;15.70;99.90;;;;;;5051474;28;20181;-57
2022/08/21 02:17:59;;;;;;;5.47;3.10;;;15.60;99.90;;;;;;5051357;28;20537;-57
2022/08/21 02:20:38;;;;;;;5.68;3.30;;;15.60;99.90;;;;;;5050595;28;20185;-57
2022/08/21 02:23:06;;;;;;;3.88;3.22;;;15.60;99.90;;;;;;5051429;28;20181;-57
2022/08/21 02:25:32;;;;;;;6.32;3.17;;;15.50;99.90;;;;;;5051302;28;20208;-57
2022/08/21 02:27:59;;;;;;;4.57;3.03;;;15.50;99.90;;;;;;5051480;28;20177;-57
2022/08/21 02:30:28;;;;;;;5.88;3.30;;;15.50;99.90;;;;;;5051271;28;20216;-58
2022/08/21 02:32:54;;;;;;;5.72;2.88;;;15.50;99.90;;;;;;5051351;28;20658;-58
2022/08/21 02:35:21;;;;;;;5.07;3.00;;;15.50;99.90;;;;;;5051428;28;20182;-57
2022/08/21 02:37:48;;;;;;;7.70;3.00;;;15.40;99.90;;;;;;5051385;28;20174;-58
2022/08/21 02:40:15;;;;;;;4.72;2.92;;;15.40;99.90;;;;;;5051175;28;20181;-58
2022/08/21 02:42:40;;;;;;;4.20;2.92;;;15.40;99.90;;;;;;5051196;28;20174;-58
2022/08/21 02:45:07;;;;;;;7.30;3.05;;;15.40;99.90;;;;;;5051167;28;20537;-57
2022/08/21 02:47:32;;;;;;;5.60;3.42;;;15.40;99.90;;;;;;5051189;28;20178;-57
2022/08/21 02:49:58;;;;;;;4.43;3.20;;;15.40;99.90;;;;;;5050961;28;20691;-57
2022/08/21 02:52:24;;;;;;;5.95;3.33;;;15.30;99.90;;;;;;5050941;28;20262;-58
2022/08/21 02:54:49;;;;;;;5.85;3.22;;;15.30;99.90;;;;;;5050912;28;20173;-58
2022/08/21 02:57:15;;;;;;;4.68;3.05;;;15.30;99.90;;;;;;5051105;28;20177;-58
2022/08/21 02:59:41;;;;;;;4.13;3.10;;;15.30;99.90;;;;;;5054686;28;20181;-57
2022/08/21 03:02:07;;;;;;;3.45;2.78;;;15.20;99.90;;;;;;5054384;28;20221;-57
2022/08/21 03:04:32;;;;;;;4.00;2.85;;;15.20;99.90;;;;;;5054531;28;20181;-57
2022/08/21 03:06:58;;;;;;;4.55;3.05;;;15.20;99.90;;;;;;5054473;28;20173;-57
2022/08/21 03:09:23;;;;;;;7.43;2.83;;;15.20;99.90;;;;;;5054627;28;20217;-57
2022/08/21 03:11:51;;;;;;;5.80;3.10;;;15.20;99.90;;;;;;5054248;28;20196;-58
2022/08/21 03:14:17;;;;;;;6.30;3.05;;;15.10;99.90;;;;;;5054333;28;20174;-57
2022/08/21 03:16:42;;;;;;;4.65;2.80;;;15.10;99.90;;;;;;5054314;28;20232;-57
2022/08/21 03:19:08;;;;;;;5.63;3.22;;;15.10;99.90;;;;;;5054219;28;20201;-57
2022/08/21 03:21:33;;;;;;;4.07;2.75;;;15.10;99.90;;;;;;5054238;28;20256;-57
2022/08/21 03:23:59;;;;;;;6.45;3.00;;;15.10;99.90;;;;;;5054107;28;20173;-57
2022/08/21 03:26:24;;;;;;;3.58;2.60;;;15.10;99.90;;;;;;5054265;28;20178;-57
2022/08/21 03:28:50;;;;;;;4.53;3.00;;;15.10;99.90;;;;;;5053904;28;20173;-57
2022/08/21 03:31:17;;;;;;;4.22;3.10;;;15.00;99.90;;;;;;5054117;28;20214;-57
2022/08/21 03:33:43;;;;;;;3.90;2.55;;;15.00;99.90;;;;;;5054114;28;20178;-57
2022/08/21 03:36:10;;;;;;;5.85;3.17;;;15.00;99.90;;;;;;5053886;28;20177;-57
2022/08/21 03:38:37;;;;;;;3.58;2.85;;;15.00;99.90;;;;;;5054055;28;20247;-57
2022/08/21 03:41:03;;;;;;;4.95;2.72;;;15.00;99.90;;;;;;5053798;28;20215;-58
2022/08/21 03:43:29;;;;;;;5.07;2.65;;;15.00;99.90;;;;;;5053867;28;20239;-57
2022/08/21 03:45:55;;;;;;;4.82;2.28;;;15.00;99.90;;;;;;5053793;28;20201;-57
2022/08/21 03:48:21;;;;;;;3.20;2.78;;;15.00;99.90;;;;;;5054032;28;20590;-57
2022/08/21 03:50:49;;;;;;;2.75;2.17;;;15.00;99.90;;;;;;5052872;28;20283;-58
2022/08/21 03:53:15;;;;;;;2.75;1.90;;;14.90;99.90;;;;;;5053787;28;20185;-58
2022/08/21 03:55:41;;;;;;;2.35;2.15;;;14.90;99.90;;;;;;5053606;28;20193;-57
2022/08/21 03:58:07;;;;;;;2.40;2.20;;;14.90;99.90;;;;;;5053460;28;20652;-57
2022/08/21 04:00:33;;;;;;;4.85;2.35;;;14.90;99.90;;;;;;5053449;28;20264;-57
2022/08/21 04:02:59;;;;;;;4.68;2.60;;;14.90;99.90;;;;;;5053542;28;20289;-57
2022/08/21 04:05:27;;;;;;;3.22;2.10;;;14.80;99.90;;;;;;5053502;28;20181;-57
2022/08/21 04:08:04;;;;;;;5.78;2.40;;;14.80;99.90;;;;;;5053461;28;20174;-57
2022/08/21 04:10:32;;;;;;;2.88;2.22;;;14.70;99.90;;;;;;5052383;28;20213;-58
2022/08/21 04:12:58;;;;;;;2.63;2.42;;;14.70;99.90;;;;;;5053341;28;20178;-57
2022/08/21 04:15:25;;;;;;;5.35;2.47;;;14.70;99.90;;;;;;5053468;28;20178;-57
2022/08/21 04:17:51;;;;;;;5.00;2.42;;;14.60;99.90;;;;;;5053005;28;20629;-57
2022/08/21 04:20:18;;;;;;;2.50;2.25;;;14.60;99.90;;;;;;5053314;28;20181;-57
2022/08/21 04:22:45;;;;;;;3.17;2.72;;;14.60;99.90;;;;;;5053071;28;20243;-58
2022/08/21 04:25:13;;;;;;;4.20;2.50;;;14.50;99.90;;;;;;5052848;28;20201;-57
2022/08/21 04:27:39;;;;;;;2.97;2.65;;;14.60;99.90;;;;;;5052809;28;20661;-57
2022/08/21 04:30:06;;;;;;;4.78;2.80;;;14.50;99.90;;;;;;5052787;28;20228;-57
2022/08/21 04:32:32;;;;;;;4.40;2.70;;;14.50;99.90;;;;;;5052909;28;20173;-57
2022/08/21 04:35:00;;;;;;;3.42;2.80;;;14.50;99.90;;;;;;5052766;28;20201;-57
2022/08/21 04:37:26;;;;;;;3.90;2.70;;;14.50;99.90;;;;;;5052624;28;20172;-57
2022/08/21 04:39:52;;;;;;;3.25;2.47;;;14.50;99.90;;;;;;5052521;28;20181;-57
2022/08/21 04:42:18;;;;;;;3.92;2.60;;;14.50;99.90;;;;;;5052661;28;20166;-57
2022/08/21 04:44:43;;;;;;;3.83;2.58;;;14.50;99.90;;;;;;5052738;28;20212;-57
2022/08/21 04:47:09;;;;;;;4.72;2.97;;;14.60;99.90;;;;;;5052482;28;20174;-58
2022/08/21 04:49:34;;;;;;;5.20;2.45;;;14.70;99.90;;;;;;5052233;28;20203;-57
2022/08/21 04:52:01;;;;;;;4.18;2.58;;;14.70;99.90;;;;;;5052292;28;20196;-58
2022/08/21 04:54:27;;;;;;;6.80;2.38;;;14.70;99.90;;;;;;5052124;28;20196;-57
2022/08/21 04:57:06;;;;;;;2.83;2.28;;;14.70;99.90;;;;;;5052491;28;20176;-57
2022/08/21 04:59:40;;;;;;;3.80;2.60;;;14.80;99.90;;;;;;5052512;28;20177;-57
2022/08/21 05:02:08;;;;;;;3.17;2.50;;;14.80;99.90;;;;;;5052175;28;20302;-57
2022/08/21 05:04:39;;;;;;;2.92;2.50;;;14.80;99.90;;;;;;5052387;28;20184;-57
2022/08/21 05:07:10;;;;;;;4.18;2.60;;;14.90;99.90;;;;;;5052357;28;20691;-57
2022/08/21 05:09:37;;;;;;;7.20;2.70;;;14.90;99.90;;;;;;5052317;28;20208;-57
2022/08/21 05:12:04;;;;;;;3.97;2.50;;;15.00;99.90;;;;;;5052402;28;20236;-57
2022/08/21 05:14:29;;;;;;;4.15;2.63;;;15.10;99.90;;;;;;5052090;28;20178;-57
2022/08/21 05:16:55;;;;;;;5.47;2.53;;;15.20;99.90;;;;;;5052148;28;20173;-58
2022/08/21 05:19:20;;;;;;;2.75;2.40;;;15.50;99.90;;;;;;5052109;28;20178;-57
2022/08/21 05:21:49;;;;;;;3.05;2.53;;;15.80;99.90;;;;;;5051959;28;20177;-57
2022/08/21 05:24:15;;;;;;;3.30;2.15;;;16.00;99.90;;;;;;5051972;28;20169;-57
2022/08/21 05:26:41;;;;;;;3.38;2.35;;;16.40;99.90;;;;;;5052008;28;20173;-57
2022/08/21 05:29:07;;;;;;;3.22;2.10;;;16.70;99.90;;;;;;5051790;28;20592;-58
2022/08/21 05:31:33;;;;;;;5.03;2.30;;;17.00;99.90;;;;;;5051954;28;20688;-57
2022/08/21 05:33:58;;;;;;;3.28;2.20;;;17.20;99.90;;;;;;5051926;28;20180;-58
2022/08/21 05:36:24;;;;;;;3.72;2.17;;;17.40;99.90;;;;;;5051931;28;20315;-57
2022/08/21 05:38:50;;;;;;;5.30;2.20;;;17.50;99.90;;;;;;5051787;28;20208;-58
2022/08/21 05:41:15;;;;;;;4.95;2.33;;;17.70;99.90;;;;;;5051897;28;20625;-58
2022/08/21 05:43:41;;;;;;;3.05;2.10;;;17.90;99.90;;;;;;5051698;28;20199;-58
2022/08/21 05:46:07;;;;;;;2.67;2.08;;;18.30;99.90;;;;;;5051718;28;20170;-58
2022/08/21 05:48:34;;;;;;;4.00;2.13;;;18.70;99.90;;;;;;5051625;28;20663;-58
2022/08/21 05:51:14;;;;;;;5.05;2.55;;;19.20;99.90;;;;;;5051578;28;20213;-58
2022/08/21 05:53:42;;;;;;;4.43;2.30;;;19.70;99.90;;;;;;5051710;28;20551;-58
2022/08/21 05:56:08;;;;;;;2.88;2.20;;;20.30;99.60;;;;;;5051699;28;20716;-58
2022/08/21 05:58:34;;;;;;;2.35;2.05;;;20.80;98.30;;;;;;5051734;28;20173;-58
2022/08/21 06:01:00;;;;;;;2.53;1.95;;;21.20;97.30;;;;;;5051387;28;20649;-58
2022/08/21 06:03:30;;;;;;;3.78;2.00;;;21.70;96.20;;;;;;5051711;28;20177;-58
2022/08/21 06:05:56;;;;;;;2.00;1.90;;;22.10;95.30;;;;;;5051530;28;20181;-58
2022/08/21 06:08:23;;;;;;;5.65;2.35;;;22.50;94.40;;;;;;5051617;28;20170;-58
2022/08/21 06:10:50;;;;;;;1.95;1.83;;;23.00;94.00;;;;;;5051448;28;20235;-58
2022/08/21 06:13:18;;;;;;;3.67;2.03;;;23.50;92.50;;;;;;5051615;28;20522;-58
2022/08/21 06:15:44;;;;;;;5.00;1.90;;;24.00;91.30;;;;;;5051506;28;20265;-58
2022/08/21 06:18:10;;;;;;;3.08;1.90;;;24.30;90.60;;;;;;5051274;28;20264;-58
2022/08/21 06:20:35;;;;;;;4.68;1.80;;;24.60;87.00;;;;;;5051470;28;20180;-58
2022/08/21 06:23:01;;;;;;;3.58;1.77;;;24.50;84.90;;;;;;5051510;28;20178;-58
2022/08/21 06:25:27;;;;;;;5.97;2.10;;;24.60;85.30;;;;;;5051649;28;20505;-58
2022/08/21 06:27:53;;;;;;;5.80;1.83;;;24.80;84.20;;;;;;5051367;28;20170;-58
2022/08/21 06:30:19;;;;;;;6.30;2.22;;;25.30;84.10;;;;;;5051490;28;20296;-58
2022/08/21 06:32:45;;;;;;;2.45;1.55;;;25.80;80.70;;;;;;5052247;28;20268;-59
2022/08/21 06:35:11;;;;;;;5.25;2.90;;;26.20;77.50;;;;;;5055194;28;20260;-58
2022/08/21 06:37:36;;;;;;;5.80;2.40;;;26.50;76.60;;;;;;5055279;28;20201;-58
2022/08/21 06:40:04;;;;;;;4.63;2.28;;;26.90;75.20;;;;;;5055082;28;20711;-59
2022/08/21 06:42:29;;;;;;;4.80;2.45;;;27.30;73.80;;;;;;5055069;28;20204;-58
2022/08/21 06:44:57;;;;;;;2.63;1.77;;;27.60;72.40;;;;;;5055122;28;20661;-58
2022/08/21 06:47:22;;;;;;;3.10;1.73;;;28.00;71.90;;;;;;5054897;28;20272;-58
2022/08/21 06:49:48;;;;;;;2.70;1.85;;;28.70;70.70;;;;;;5054778;28;20213;-59
2022/08/21 06:52:14;;;;;;;4.22;2.00;;;29.30;68.10;;;;;;5055003;28;20539;-58
2022/08/21 06:54:40;;;;;;;5.82;1.95;;;29.70;65.90;;;;;;5054927;28;20212;-58
2022/08/21 06:57:06;;;;;;;4.72;2.10;;;30.00;64.80;;;;;;5054852;28;20235;-59
2022/08/21 06:59:32;;;;;;;3.88;1.88;;;30.10;62.10;;;;;;5054796;28;20181;-59
2022/08/21 07:01:58;;;;;;;3.67;1.73;;;30.10;62.10;;;;;;5054668;28;20218;-59
2022/08/21 07:04:24;;;;;;;2.70;1.80;;;30.30;60.70;;;;;;5054843;28;20182;-59
2022/08/21 07:06:50;;;;;;;3.58;1.75;;;30.40;61.20;;;;;;5054543;28;20280;-59
2022/08/21 07:09:16;;;;;;;4.32;2.47;;;30.70;59.70;;;;;;5054827;28;20189;-59
2022/08/21 07:11:42;;;;;;;3.65;2.20;;;31.00;57.30;;;;;;5054725;28;20228;-59
2022/08/21 07:14:08;;;;;;;3.85;1.77;;;31.20;57.10;;;;;;5054501;28;20199;-58
2022/08/21 07:16:33;;;;;;;3.47;2.03;;;31.40;55.60;;;;;;5054644;28;20173;-58
2022/08/21 07:18:59;;;;;;;5.97;2.40;;;31.60;55.50;;;;;;5054498;28;20303;-58
2022/08/21 07:21:24;;;;;;;5.50;2.10;;;31.80;54.30;;;;;;5054622;28;20310;-58
2022/08/21 07:23:51;;;;;;;2.28;2.00;;;32.20;53.30;;;;;;5054278;28;20664;-58
2022/08/21 07:26:20;;;;;;;2.97;2.00;;;32.50;52.60;;;;;;5054314;28;20690;-58
2022/08/21 07:28:47;;;;;;;4.00;2.20;;;32.70;51.70;;;;;;5054158;28;20658;-59
2022/08/21 07:31:15;;;;;;;3.75;2.20;;;32.80;51.70;;;;;;5054315;28;20312;-58
2022/08/21 07:33:41;;;;;;;4.80;2.00;;;32.90;51.00;;;;;;5054385;28;20255;-58
2022/08/21 07:36:07;;;;;;;3.20;1.85;;;33.00;51.60;;;;;;5054147;28;20215;-58
2022/08/21 07:38:33;;;;;;;6.68;2.10;;;33.20;51.00;;;;;;5054169;28;20173;-59
2022/08/21 07:41:01;;;;;;;4.03;2.00;;;33.00;50.90;;;;;;5054143;28;20181;-58
2022/08/21 07:43:27;;;;;;;4.93;2.30;;;32.90;50.60;;;;;;5054023;28;20632;-58
2022/08/21 07:45:53;;;;;;;5.22;2.40;;;33.10;50.40;;;;;;5054020;28;20199;-59
2022/08/21 07:48:19;;;;;;;5.53;2.25;;;33.40;49.80;;;;;;5054100;28;20268;-59
2022/08/21 07:50:45;;;;;;;6.03;2.50;;;33.80;48.80;;;;;;5053946;28;20303;-59
2022/08/21 07:53:11;;;;;;;3.97;2.60;;;34.10;48.90;;;;;;5054134;28;20682;-59
2022/08/21 07:55:36;;;;;;;6.78;2.40;;;34.40;48.50;;;;;;5053904;28;20180;-59
2022/08/21 07:58:02;;;;;;;5.07;2.30;;;34.20;47.30;;;;;;5053874;28;20172;-59
2022/08/21 08:00:29;;;;;;;4.93;2.45;;;34.00;48.40;;;;;;5053514;28;20200;-59
2022/08/21 08:02:55;;;;;;;6.28;2.20;;;33.80;48.70;;;;;;5053776;28;20480;-59
2022/08/21 08:05:24;;;;;;;6.00;3.20;;;33.50;48.30;;;;;;5053776;28;20176;-59
2022/08/21 08:07:50;;;;;;;7.38;2.60;;;33.40;48.80;;;;;;5053504;28;20252;-59
2022/08/21 08:10:17;;;;;;;4.93;2.20;;;33.60;49.70;;;;;;5053663;28;20307;-59
2022/08/21 08:12:43;;;;;;;4.93;2.50;;;34.00;48.20;;;;;;5053455;28;20173;-58
2022/08/21 08:15:15;;;;;;;5.80;2.20;;;34.10;47.70;;;;;;5053218;28;20184;-59
2022/08/21 08:17:41;;;;;;;6.90;2.50;;;34.40;48.60;;;;;;5053533;28;20269;-59
2022/08/21 08:20:08;;;;;;;6.47;2.08;;;34.40;47.00;;;;;;5053349;28;20686;-59
2022/08/21 08:22:36;;;;;;;5.25;2.30;;;34.50;47.90;;;;;;5053387;28;20520;-59
2022/08/21 08:25:02;;;;;;;4.63;2.80;;;34.60;48.00;;;;;;5053260;28;20635;-59
2022/08/21 08:27:28;;;;;;;4.82;2.50;;;34.70;47.30;;;;;;5053069;28;20267;-59
2022/08/21 08:29:53;;;;;;;4.95;2.40;;;34.40;47.00;;;;;;5053049;28;20283;-59
2022/08/21 08:32:20;;;;;;;5.72;2.50;;;34.20;47.50;;;;;;5053273;28;20652;-59
2022/08/21 08:34:46;;;;;;;6.13;2.90;;;34.00;47.50;;;;;;5053180;28;20177;-60
2022/08/21 08:37:12;;;;;;;6.65;2.60;;;34.20;47.80;;;;;;5052942;28;20184;-59
2022/08/21 08:39:38;;;;;;;4.88;2.50;;;34.30;46.90;;;;;;5053098;28;20664;-59
2022/08/21 08:42:13;;;;;;;5.03;2.90;;;34.20;47.80;;;;;;5052889;28;20292;-59
2022/08/21 08:44:44;;;;;;;4.20;2.58;;;34.40;47.00;;;;;;5053017;28;20710;-59
2022/08/21 08:47:15;;;;;;;5.18;2.65;;;34.40;46.80;;;;;;5052842;28;20268;-58
2022/08/21 08:49:49;;;;;;;4.30;2.70;;;34.60;46.70;;;;;;5052936;28;20209;-59
2022/08/21 08:52:24;;;;;;;4.25;2.85;;;34.70;46.60;;;;;;5052738;28;20180;-59
2022/08/21 08:55:07;;;;;;;5.13;2.85;;;34.60;46.60;;;;;;5052635;28;20532;-58
2022/08/21 08:57:34;;;;;;;3.80;2.38;;;34.50;46.70;;;;;;5052557;28;20214;-59
2022/08/21 09:00:04;;;;;;;6.18;2.90;;;34.60;47.40;;;;;;5052640;28;20235;-58
2022/08/21 09:02:29;;;;;;;5.28;2.85;;;34.60;46.70;;;;;;5052269;28;20228;-59
2022/08/21 09:04:55;;;;;;;5.63;3.05;;;34.70;45.80;;;;;;5052541;28;20184;-59
2022/08/21 09:07:51;;;;;;;6.00;3.05;;;34.30;46.60;;;;;;5052606;28;20582;-59
2022/08/21 09:10:21;;;;;;;8.77;3.05;;;34.10;47.50;;;;;;5052402;28;20299;-59
2022/08/21 09:13:02;;;;;;;5.22;3.08;;;33.20;47.30;;;;;;5052451;28;20185;-58
2022/08/21 09:15:50;;;;;;;6.35;2.85;;;32.90;49.30;;;;;;5052413;28;20191;-58
2022/08/21 09:18:46;;;;;;;7.57;3.10;;;32.70;49.10;;;;;;5052372;28;20177;-58
2022/08/21 09:21:48;;;;;;;8.20;3.50;;;32.60;48.70;;;;;;5052203;28;20177;-58
2022/08/21 09:24:44;;;;;;;4.95;2.90;;;32.80;49.50;;;;;;5052395;28;20181;-58
2022/08/21 09:27:15;;;;;;;5.18;2.78;;;32.80;49.10;;;;;;5052102;28;20205;-58
2022/08/21 09:29:44;;;;;;;5.68;2.80;;;32.80;48.50;;;;;;5052098;28;20192;-58
2022/08/21 09:32:31;;;;;;;8.90;3.15;;;32.90;48.80;;;;;;5052063;28;20260;-58
2022/08/21 09:35:19;;;;;;;4.72;2.85;;;32.90;49.10;;;;;;5051861;28;20178;-58
2022/08/21 09:38:05;;;;;;;5.60;3.03;;;32.90;49.60;;;;;;5052137;28;20189;-59
2022/08/21 09:40:42;;;;;;;6.18;2.88;;;33.00;48.40;;;;;;5052042;28;20185;-58
2022/08/21 09:43:11;;;;;;;4.28;2.78;;;33.10;48.00;;;;;;5051935;28;20173;-59
2022/08/21 09:45:37;;;;;;;5.90;2.90;;;33.30;47.60;;;;;;5052041;28;20268;-59
2022/08/21 09:48:22;;;;;;;6.80;2.58;;;33.50;47.80;;;;;;5051855;28;20505;-58
2022/08/21 09:50:49;;;;;;;5.65;2.50;;;33.60;47.10;;;;;;5051810;28;20228;-59
2022/08/21 09:53:29;;;;;;;7.03;2.72;;;33.80;47.10;;;;;;5052008;28;20180;-58
2022/08/21 09:58:47;;;;;;;4.78;2.50;;;34.30;46.20;;;;;;5052301;28;20184;-59
2022/08/21 10:01:19;;;;;;;4.93;2.40;;;34.40;45.30;;;;;;5051734;28;20240;-58
2022/08/21 10:03:46;;;;;;;4.53;2.60;;;34.50;45.00;;;;;;5051822;28;20264;-59
2022/08/21 10:06:23;;;;;;;6.00;2.75;;;34.40;45.20;;;;;;5051650;28;20832;-58
2022/08/21 10:08:49;;;;;;;4.15;2.20;;;34.40;44.50;;;;;;5054165;28;20187;-59
2022/08/21 10:11:16;;;;;;;5.30;2.15;;;34.60;44.80;;;;;;5055873;28;20212;-59
2022/08/21 10:14:07;;;;;;;5.90;2.30;;;34.40;43.60;;;;;;5055820;28;20176;-59
2022/08/21 10:16:46;;;;;;;4.05;2.22;;;34.50;41.80;;;;;;5055791;28;20187;-59
2022/08/21 10:19:31;;;;;;;5.32;2.30;;;34.70;42.20;;;;;;5055701;28;20164;-59
2022/08/21 10:22:35;;;;;;;4.90;2.50;;;34.80;43.90;;;;;;5055634;28;20199;-59
2022/08/21 10:25:12;;;;;;;4.97;2.33;;;34.90;43.10;;;;;;5033342;28;20277;-59
2022/08/21 10:27:46;;;;;;;6.82;2.80;;;34.60;42.80;;;;;;5052727;28;20647;-59
2022/08/21 10:30:16;;;;;;;5.63;2.50;;;34.40;42.80;;;;;;5055314;28;20232;-59
2022/08/21 10:32:59;;;;;;;3.28;1.95;;;34.40;42.50;;;;;;5055442;28;20177;-59
2022/08/21 10:35:31;;;;;;;2.72;2.17;;;34.40;43.40;;;;;;5055570;28;20545;-59
2022/08/21 10:38:15;;;;;;;4.75;2.70;;;34.50;43.50;;;;;;5055353;28;20184;-59
2022/08/21 10:41:13;;;;;;;5.80;2.28;;;34.30;42.50;;;;;;5055378;28;20173;-59
2022/08/21 10:43:50;;;;;;;4.75;2.10;;;34.30;42.50;;;;;;5046338;28;20196;-59
2022/08/21 10:46:35;;;;;;;3.95;2.08;;;34.50;43.10;;;;;;5055226;28;20265;-59
2022/08/21 10:49:26;;;;;;;5.15;1.80;;;34.60;42.20;;;;;;5055145;28;20263;-59
2022/08/21 10:52:05;;;;;;;3.85;2.10;;;34.40;40.40;;;;;;5054932;28;20652;-59
2022/08/21 10:54:50;;;;;;;5.97;2.30;;;34.20;41.40;;;;;;5055096;28;20180;-59
2022/08/21 10:57:24;;;;;;;5.13;1.95;;;34.00;42.30;;;;;;5055042;28;20188;-59
2022/08/21 11:00:00;;;;;;;5.55;2.25;;;34.10;43.90;;;;;;5054905;28;20177;-59
2022/08/21 11:02:38;;;;;;;6.00;2.55;;;33.90;42.60;;;;;;5053767;28;20324;-59
2022/08/21 11:05:44;;;;;;;2.15;1.92;;;33.90;41.90;;;;;;5053651;28;20191;-58
2022/08/21 11:08:15;;;;;;;3.70;2.00;;;34.00;41.60;;;;;;5053615;28;20238;-58
2022/08/21 11:10:42;;;;;;;4.80;2.35;;;33.80;41.10;;;;;;5053545;28;20201;-58
2022/08/21 11:13:24;;;;;;;5.13;2.22;;;33.50;41.40;;;;;;5053329;28;20181;-59
2022/08/21 11:16:04;;;;;;;5.22;2.42;;;32.90;42.70;;;;;;5053451;28;20243;-58
2022/08/21 11:18:34;;;;;;;5.07;2.67;;;32.60;43.20;;;;;;5052993;28;20181;-58
2022/08/21 11:21:23;;;;;;;6.93;2.28;;;32.70;44.50;;;;;;5053404;28;20174;-59
2022/08/21 11:24:04;;;;;;;5.20;2.30;;;32.80;43.40;;;;;;5053193;28;20182;-59
2022/08/21 11:26:42;;;;;;;8.38;2.40;;;33.30;43.60;;;;;;5053212;28;20196;-59
2022/08/21 11:29:17;;;;;;;7.95;4.60;;;33.60;42.40;;;;;;5053138;28;20177;-59
2022/08/21 11:32:20;;;;;;;5.07;2.45;;;33.80;42.20;;;;;;5053177;28;20204;-59
2022/08/21 11:34:57;;;;;;;4.80;2.22;;;34.00;41.70;;;;;;5053214;28;20330;-59
2022/08/21 11:37:41;;;;;;;3.05;2.03;;;34.20;40.20;;;;;;5053191;28;20265;-59
2022/08/21 11:40:22;;;;;;;4.88;2.22;;;34.20;40.90;;;;;;5053008;28;20177;-59
2022/08/21 11:42:59;;;;;;;7.15;2.10;;;34.30;40.60;;;;;;5053003;28;20260;-59
2022/08/21 11:45:51;;;;;;;5.20;2.42;;;34.40;39.40;;;;;;5053166;28;20242;-59
2022/08/21 11:48:40;;;;;;;4.22;2.00;;;34.30;39.50;;;;;;5052956;28;20205;-59
2022/08/21 11:51:13;;;;;;;4.38;2.28;;;34.10;39.50;;;;;;5052755;28;20300;-59
2022/08/21 11:53:55;;;;;;;3.67;1.85;;;34.00;38.90;;;;;;5052960;28;20271;-59
2022/08/21 11:56:31;;;;;;;4.55;2.13;;;33.80;38.80;;;;;;5052988;28;20181;-59
2022/08/21 11:59:06;;;;;;;2.35;1.80;;;33.50;38.70;;;;;;5052859;28;20217;-59
2022/08/21 12:01:40;;;;;;;6.32;2.20;;;33.30;38.70;;;;;;5017168;28;1029758;-59
2022/08/21 12:04:27;;;;;;;5.30;2.67;;;33.20;40.80;;;;;;5053722;28;20193;-58
2022/08/21 12:06:54;;;;;;;3.55;2.25;;;33.20;41.20;;;;;;5053737;28;20213;-59
2022/08/21 12:09:25;;;;;;;3.38;1.92;;;32.70;39.50;;;;;;5053719;28;20178;-59
2022/08/21 12:12:22;;;;;;;5.57;2.22;;;32.40;39.90;;;;;;5053409;28;20209;-58
2022/08/21 12:14:49;;;;;;;3.90;2.03;;;32.20;40.50;;;;;;5053437;28;20177;-59
2022/08/21 12:17:21;;;;;;;2.67;1.80;;;32.30;39.80;;;;;;5053564;28;20212;-59
2022/08/21 12:19:58;;;;;;;3.63;2.13;;;32.50;39.20;;;;;;5053457;28;20669;-60
2022/08/21 12:22:37;;;;;;;5.90;2.20;;;32.60;39.70;;;;;;5053558;28;20193;-59
2022/08/21 12:25:10;;;;;;;8.13;4.32;;;32.60;39.00;;;;;;5053536;28;20695;-58
2022/08/21 12:27:52;;;;;;;3.80;2.10;;;32.80;39.60;;;;;;5053380;28;20186;-59
2022/08/21 12:30:26;;;;;;;3.47;2.53;;;33.00;38.70;;;;;;5052378;28;20307;-59
2022/08/21 12:33:19;;;;;;;4.25;2.42;;;33.20;39.50;;;;;;5053151;28;20174;-59
2022/08/21 12:35:49;;;;;;;2.65;2.22;;;33.30;39.30;;;;;;5052902;28;20203;-59
2022/08/21 12:38:18;;;;;;;4.30;2.22;;;33.10;38.90;;;;;;5053208;28;20201;-59
2022/08/21 12:40:50;;;;;;;3.83;1.90;;;32.80;39.60;;;;;;5052977;28;20184;-59
2022/08/21 12:43:32;;;;;;;5.03;1.90;;;32.50;39.60;;;;;;5053213;28;20173;-58
2022/08/21 12:46:04;;;;;;;4.72;2.40;;;32.50;39.50;;;;;;5052982;28;20212;-59
2022/08/21 12:48:41;;;;;;;3.88;1.98;;;32.50;40.30;;;;;;5052942;28;20200;-59
2022/08/21 12:51:17;;;;;;;3.63;2.17;;;32.60;39.50;;;;;;5052733;28;20239;-59
2022/08/21 12:53:49;;;;;;;3.30;2.13;;;32.80;39.20;;;;;;5052958;28;20555;-59
2022/08/21 12:56:17;;;;;;;5.68;2.20;;;33.00;38.80;;;;;;5052794;28;20173;-59
2022/08/21 12:58:49;;;;;;;4.60;2.58;;;33.00;40.00;;;;;;5052781;28;20264;-59
2022/08/21 13:01:24;;;;;;;4.13;2.00;;;33.00;38.10;;;;;;5052603;28;20252;-59
2022/08/21 13:03:50;;;;;;;3.03;1.90;;;33.00;37.90;;;;;;5052513;28;20181;-59